Time;durP1;ratioP1;P1;durP2;ratioP2;P2;SDS_P1;SDS_P2;PMS_P1;PMS_P2;Temp;Humidity;BMP_temperature;BMP_pressure;BME280_temperature;BME280_humidity;BME280_pressure;Samples;Min_cycle;Max_cycle;Signal;HPM_P1;HPM_P2
2022/10/28 00:00:01;;;;;;;21.77;10.93;;;;;;;-141.97;60.44;47578.66;5074707;28;20164;-80
2022/10/28 00:02:26;;;;;;;23.07;10.77;;;;;;;-141.97;60.13;47547.91;5074786;28;20244;-80
2022/10/28 00:04:52;;;;;;;25.07;10.77;;;;;;;-141.97;60.22;47582.50;5074940;28;20179;-79
2022/10/28 00:07:17;;;;;;;21.83;10.33;;;;;;;-141.97;60.45;47542.16;5074487;28;20664;-79
2022/10/28 00:09:42;;;;;;;19.50;10.87;;;;;;;-141.97;60.74;47547.91;5074783;28;20161;-80
2022/10/28 00:12:08;;;;;;;22.77;10.97;;;;;;;-141.97;60.90;47603.66;5074364;28;20161;-81
2022/10/28 00:14:33;;;;;;;18.97;10.73;;;;;;;-141.97;60.98;47561.38;5074497;28;20621;-80
2022/10/28 00:16:59;;;;;;;21.13;11.20;;;;;;;-141.97;61.55;47561.38;5056171;28;20188;-80
2022/10/28 00:19:24;;;;;;;34.67;11.50;;;;;;;-141.97;61.52;47540.22;5074330;28;20157;-80
2022/10/28 00:21:49;;;;;;;25.80;11.30;;;;;;;-141.97;61.34;47572.91;5074222;28;20172;-80
2022/10/28 00:24:15;;;;;;;20.77;11.33;;;;;;;-141.97;61.19;47559.44;5074247;28;20165;-80
2022/10/28 00:26:42;;;;;;;27.07;11.37;;;;;;;-141.97;61.42;47576.75;5074071;28;20169;-80
2022/10/28 00:29:10;;;;;;;25.37;12.23;;;;;;;-141.97;61.59;47578.66;5074164;28;20733;-80
2022/10/28 00:31:36;;;;;;;23.10;11.43;;;;;;;-141.97;62.06;47569.06;5074123;28;20222;-80
2022/10/28 00:34:03;;;;;;;27.57;11.43;;;;;;;-141.97;62.65;47580.59;5073833;28;20650;-80
2022/10/28 00:36:34;;;;;;;27.43;11.67;;;;;;;-141.97;62.58;47586.34;5073913;28;20254;-80
2022/10/28 00:39:02;;;;;;;23.60;11.30;;;;;;;-141.97;62.65;47557.53;5073705;28;20179;-81
2022/10/28 00:41:31;;;;;;;27.67;11.80;;;;;;;-141.97;62.70;47567.13;5074066;28;20173;-80
2022/10/28 00:43:59;;;;;;;26.33;11.27;;;;;;;-141.97;62.91;47569.06;5074297;28;20172;-78
2022/10/28 00:46:44;;;;;;;26.30;11.63;;;;;;;-141.97;63.27;47669.00;5074088;28;20171;-78
2022/10/28 00:49:13;;;;;;;24.10;11.93;;;;;;;-141.97;63.13;47547.91;5073756;28;20165;-80
2022/10/28 00:51:39;;;;;;;26.87;12.20;;;;;;;-141.97;63.21;47572.91;5073635;28;20177;-80
2022/10/28 00:54:06;;;;;;;25.10;12.60;;;;;;;-141.97;63.25;47584.44;5073517;28;20710;-80
2022/10/28 00:56:38;;;;;;;22.80;12.23;;;;;;;-141.97;63.72;47576.75;5072840;28;20258;-79
2022/10/28 00:59:09;;;;;;;27.10;12.03;;;;;;;-141.97;63.62;47549.84;5073547;28;20169;-80
2022/10/28 01:01:35;;;;;;;26.57;12.07;;;;;;;-141.97;63.82;47590.19;5073525;28;20194;-80
2022/10/28 01:04:00;;;;;;;26.70;12.73;;;;;;;-141.97;63.73;47551.75;5073885;28;20196;-79
2022/10/28 01:06:27;;;;;;;26.17;12.37;;;;;;;-141.97;63.37;47536.38;5073689;28;20168;-79
2022/10/28 01:08:53;;;;;;;23.10;12.20;;;;;;;-141.97;63.19;47578.66;5073391;28;20255;-81
2022/10/28 01:11:36;;;;;;;24.13;11.93;;;;;;;-141.97;62.94;47563.28;5073239;28;20196;-80
2022/10/28 01:14:15;;;;;;;23.43;11.93;;;;;;;-141.97;63.75;47561.38;5073594;28;20172;-80
2022/10/28 01:16:50;;;;;;;22.73;11.73;;;;;;;-141.97;63.80;47569.06;5073367;28;20207;-81
2022/10/28 01:19:35;;;;;;;24.77;11.30;;;;;;;-141.97;63.85;47569.06;5073617;28;20156;-80
2022/10/28 01:22:03;;;;;;;22.50;11.63;;;;;;;-141.97;63.79;47572.91;5073550;28;20542;-80
2022/10/28 01:24:39;;;;;;;21.63;11.07;;;;;;;-141.97;63.71;47557.53;5055107;28;20188;-80
2022/10/28 01:27:22;;;;;;;23.80;12.40;;;;;;;-141.97;64.39;47584.44;5073206;28;20643;-81
2022/10/28 01:30:09;;;;;;;24.80;11.70;;;;;;;-141.97;64.32;47597.88;5073184;28;20171;-79
2022/10/28 01:32:44;;;;;;;26.17;11.60;;;;;;;-141.97;64.47;47588.28;5073362;28;20695;-80
2022/10/28 01:35:43;;;;;;;24.97;11.70;;;;;;;-141.97;65.38;47565.22;5072804;28;20303;-80
2022/10/28 01:38:45;;;;;;;28.07;12.33;;;;;;;-141.97;66.60;47584.44;5073232;28;20172;-81
2022/10/28 01:41:17;;;;;;;23.07;12.03;;;;;;;-141.97;65.78;47565.22;5072894;28;20191;-81
2022/10/28 01:44:05;;;;;;;28.50;13.47;;;;;;;-141.97;66.21;47572.91;5073275;28;20161;-80
2022/10/28 01:46:39;;;;;;;34.30;15.93;;;;;;;-141.97;65.74;47565.22;5073097;28;20173;-80
2022/10/28 01:49:12;;;;;;;34.20;14.83;;;;;;;-141.97;65.12;47603.66;5073881;28;20163;-81
2022/10/28 01:51:45;;;;;;;26.27;14.13;;;;;;;-141.97;65.04;47578.66;5073110;28;20256;-79
2022/10/28 01:54:14;;;;;;;28.10;13.30;;;;;;;-141.97;65.23;47576.75;5072888;28;20176;-80
2022/10/28 01:56:43;;;;;;;25.23;13.50;;;;;;;-141.97;65.15;47557.53;5072852;28;20192;-80
2022/10/28 01:59:20;;;;;;;26.10;12.83;;;;;;;-141.97;65.90;47578.66;5073042;28;20234;-81
2022/10/28 02:01:45;;;;;;;28.00;14.37;;;;;;;-141.97;67.11;47557.53;5072812;28;20164;-80
2022/10/28 02:04:11;;;;;;;29.33;14.50;;;;;;;-141.97;66.89;47611.34;5073258;28;20630;-79
2022/10/28 02:06:38;;;;;;;36.90;15.67;;;;;;;-141.97;67.88;47576.75;5073146;28;20716;-79
2022/10/28 02:09:09;;;;;;;28.13;14.30;;;;;;;-141.97;69.08;47578.66;5076305;28;20165;-79
2022/10/28 02:12:02;;;;;;;34.37;14.87;;;;;;;-141.97;69.44;47626.72;5077126;28;20556;-79
2022/10/28 02:14:55;;;;;;;32.97;15.40;;;;;;;-141.97;70.58;47557.53;5076797;28;20180;-79
2022/10/28 02:17:30;;;;;;;35.37;15.47;;;;;;;-141.97;71.17;47567.13;5076493;28;20215;-80
2022/10/28 02:20:03;;;;;;;35.00;15.37;;;;;;;-141.97;71.65;47607.50;5076661;28;20588;-80
2022/10/28 02:22:43;;;;;;;31.60;14.53;;;;;;;-141.97;71.21;47553.69;5075337;28;20192;-79
2022/10/28 02:25:24;;;;;;;30.60;14.23;;;;;;;-141.97;70.94;47607.50;5077131;28;20682;-80
2022/10/28 02:28:06;;;;;;;32.80;14.70;;;;;;;-141.97;71.86;47603.66;5076601;28;20263;-80
2022/10/28 02:30:56;;;;;;;35.80;14.37;;;;;;;-141.97;71.42;47553.69;5076726;28;20204;-80
2022/10/28 02:33:27;;;;;;;31.67;14.67;;;;;;;-141.97;71.32;47605.56;5076078;28;20242;-80
2022/10/28 02:36:02;;;;;;;32.00;13.47;;;;;;;-141.97;71.30;47582.50;5076264;28;20228;-80
2022/10/28 02:38:34;;;;;;;27.87;14.27;;;;;;;-141.97;71.33;47565.22;5076489;28;20168;-80
2022/10/28 02:41:05;;;;;;;31.77;14.63;;;;;;;-141.97;71.00;47594.03;5076293;28;20625;-80
2022/10/28 02:43:35;;;;;;;29.37;13.47;;;;;;;-141.97;70.71;47576.75;5076384;28;20617;-80
2022/10/28 02:46:02;;;;;;;31.00;14.37;;;;;;;-141.97;70.49;47572.91;5076044;28;20235;-80
2022/10/28 02:48:37;;;;;;;29.83;14.20;;;;;;;-141.97;70.07;47572.91;5076026;28;20229;-79
2022/10/28 02:51:20;;;;;;;30.50;13.00;;;;;;;-141.97;70.02;47563.28;5075635;28;20180;-80
2022/10/28 02:54:06;;;;;;;25.00;13.40;;;;;;;-141.97;69.83;47570.97;5076112;28;20176;-83
2022/10/28 02:56:54;;;;;;;25.47;13.17;;;;;;;-141.97;70.18;47572.91;5075881;28;20204;-80
2022/10/28 02:59:23;;;;;;;24.27;12.73;;;;;;;-141.97;70.80;47574.81;5075470;28;20189;-79
2022/10/28 03:01:49;;;;;;;30.17;13.43;;;;;;;-141.97;71.14;47613.25;5075992;28;20260;-79
2022/10/28 03:04:14;;;;;;;25.60;12.17;;;;;;;-141.97;71.65;47557.53;5075761;28;20184;-80
2022/10/28 03:06:40;;;;;;;24.60;12.47;;;;;;;-141.97;72.08;47580.59;5075781;28;20175;-79
2022/10/28 03:09:05;;;;;;;29.23;12.50;;;;;;;-141.97;72.02;47603.66;5075581;28;20548;-79
2022/10/28 03:11:30;;;;;;;25.23;12.47;;;;;;;-141.97;71.94;47590.19;5075573;28;20192;-79
2022/10/28 03:13:56;;;;;;;22.23;11.30;;;;;;;-141.97;71.79;47611.34;5075503;28;20169;-80
2022/10/28 03:16:21;;;;;;;24.43;11.20;;;;;;;-141.97;71.82;47599.81;5075976;28;20204;-80
2022/10/28 03:18:47;;;;;;;22.40;11.70;;;;;;;-141.97;72.22;47594.03;5075454;28;20559;-80
2022/10/28 03:21:12;;;;;;;23.43;11.40;;;;;;;-141.97;71.60;47599.81;5075410;28;20164;-80
2022/10/28 03:23:37;;;;;;;23.37;11.23;;;;;;;-141.97;71.40;47615.19;5075257;28;20205;-80
2022/10/28 03:26:03;;;;;;;23.00;11.73;;;;;;;-141.97;71.04;47592.13;5075279;28;20169;-79
2022/10/28 03:28:28;;;;;;;22.13;11.37;;;;;;;-141.97;70.95;47569.06;5075287;28;20222;-80
2022/10/28 03:30:53;;;;;;;23.43;11.60;;;;;;;-141.97;70.92;47580.59;5075194;28;20289;-79
2022/10/28 03:33:19;;;;;;;24.87;11.10;;;;;;;-141.97;71.05;47544.06;5075090;28;20268;-80
2022/10/28 03:35:44;;;;;;;22.30;11.90;;;;;;;-141.97;71.34;47607.50;5075510;28;20200;-79
2022/10/28 03:38:10;;;;;;;23.50;11.83;;;;;;;-141.97;71.57;47565.22;5075187;28;20525;-80
2022/10/28 03:40:35;;;;;;;22.67;11.80;;;;;;;-141.97;70.99;47595.97;5075032;28;20161;-80
2022/10/28 03:43:00;;;;;;;25.30;13.23;;;;;;;-141.97;71.69;47597.88;5075116;28;20271;-80
2022/10/28 03:45:26;;;;;;;26.97;13.17;;;;;;;-141.97;71.45;47580.59;5075036;28;20187;-81
2022/10/28 03:47:51;;;;;;;24.17;12.43;;;;;;;-141.97;71.18;47582.50;5075003;28;20628;-80
2022/10/28 03:50:16;;;;;;;26.83;13.20;;;;;;;-141.97;71.10;47615.19;5075320;28;20165;-80
2022/10/28 03:52:45;;;;;;;26.33;12.97;;;;;;;-141.97;71.17;47580.59;5074985;28;20169;-80
2022/10/28 03:55:11;;;;;;;26.67;14.20;;;;;;;-141.97;70.90;47599.81;5074583;28;20612;-79
2022/10/28 03:57:36;;;;;;;26.90;15.00;;;;;;;-141.97;71.29;47582.50;5076067;28;20184;-78
2022/10/28 04:00:03;;;;;;;30.57;15.63;;;;;;;-141.97;71.48;47584.44;5074708;28;20161;-81
2022/10/28 04:02:28;;;;;;;31.43;16.07;;;;;;;-141.97;71.72;47572.91;5074426;28;20177;-80
2022/10/28 04:04:54;;;;;;;28.27;15.13;;;;;;;-141.97;71.65;47559.44;5074496;28;20655;-80
2022/10/28 04:07:19;;;;;;;27.37;15.47;;;;;;;-141.97;71.67;47570.97;5074337;28;20256;-80
2022/10/28 04:09:48;;;;;;;30.03;15.97;;;;;;;-141.97;71.51;47557.53;5074583;28;20217;-80
2022/10/28 04:12:14;;;;;;;33.17;15.40;;;;;;;-141.97;71.52;47565.22;5074237;28;20167;-80
2022/10/28 04:14:39;;;;;;;28.57;15.50;;;;;;;-141.97;71.19;47657.47;5057276;28;20232;-80
2022/10/28 04:17:04;;;;;;;32.77;17.40;;;;;;;-141.97;71.97;47582.50;5070661;28;20700;-80
2022/10/28 04:19:30;;;;;;;62.77;36.03;;;;;;;-141.97;73.30;47584.44;5069439;28;20261;-79
2022/10/28 04:21:55;;;;;;;36.97;20.30;;;;;;;-141.97;72.80;47570.97;5051741;28;20266;-79
2022/10/28 04:24:20;;;;;;;37.50;20.93;;;;;;;-141.97;72.94;47617.09;5052227;28;20189;-80
2022/10/28 04:26:46;;;;;;;32.20;17.50;;;;;;;-141.97;72.76;47592.13;5052186;28;20217;-79
2022/10/28 04:29:11;;;;;;;36.27;18.70;;;;;;;-141.97;72.71;47590.19;5051727;28;20181;-79
2022/10/28 04:31:37;;;;;;;39.07;18.40;;;;;;;-141.97;72.28;47588.28;5053869;28;20247;-80
2022/10/28 04:34:02;;;;;;;32.10;16.77;;;;;;;-141.97;71.60;47607.50;5071991;28;20216;-79
2022/10/28 04:36:27;;;;;;;33.27;16.77;;;;;;;-141.97;72.09;47588.28;5056071;28;20217;-79
2022/10/28 04:38:53;;;;;;;32.67;16.27;;;;;;;-141.97;72.48;47574.81;5051679;28;20193;-80
2022/10/28 04:41:18;;;;;;;32.10;15.63;;;;;;;-141.97;72.21;47594.03;5052506;28;20188;-79
2022/10/28 04:43:44;;;;;;;45.07;23.33;;;;;;;-141.97;72.35;47592.13;5051331;28;20268;-79
2022/10/28 04:46:09;;;;;;;29.47;16.53;;;;;;;-141.97;73.10;47607.50;5050972;28;20267;-82
2022/10/28 04:48:34;;;;;;;29.50;15.43;;;;;;;-141.97;72.92;47613.25;5051689;28;20197;-78
2022/10/28 04:51:00;;;;;;;28.93;15.63;;;;;;;-141.97;72.32;47619.03;5061306;28;20183;-79
2022/10/28 04:53:26;;;;;;;32.27;16.80;;;;;;;-141.97;72.02;47626.72;5071773;28;20220;-81
2022/10/28 04:55:58;;;;;;;33.07;16.73;;;;;;;-141.97;71.71;47580.59;5061683;28;20236;-79
2022/10/28 04:58:24;;;;;;;30.77;16.23;;;;;;;-141.97;72.03;47584.44;5033310;28;20188;-80
2022/10/28 05:00:50;;;;;;;31.77;16.43;;;;;;;-141.97;72.29;47572.91;5051576;28;20231;-80
2022/10/28 05:03:15;;;;;;;36.13;17.60;;;;;;;-141.97;71.99;47572.91;5065424;28;20176;-80
2022/10/28 05:05:40;;;;;;;36.07;17.17;;;;;;;-141.97;71.51;47609.41;5062757;28;20191;-79
2022/10/28 05:08:06;;;;;;;36.47;20.13;;;;;;;-141.97;71.57;47576.75;5052950;28;20235;-80
2022/10/28 05:10:32;;;;;;;42.30;22.83;;;;;;;-141.97;72.35;47649.78;5071312;28;20216;-80
2022/10/28 05:12:57;;;;;;;35.07;18.13;;;;;;;-141.97;72.62;47615.19;5071517;28;20559;-80
2022/10/28 05:15:25;;;;;;;38.27;17.47;;;;;;;-141.97;72.46;47607.50;5047206;28;20328;-82
2022/10/28 05:17:51;;;;;;;32.17;15.70;;;;;;;-141.97;72.46;47609.41;5051881;28;20226;-80
2022/10/28 05:20:18;;;;;;;32.50;17.00;;;;;;;-141.97;72.66;47595.97;5050456;28;20185;-80
2022/10/28 05:22:52;;;;;;;33.33;17.20;;;;;;;-141.97;72.21;47576.75;5050832;28;20275;-81
2022/10/28 05:25:18;;;;;;;42.80;17.70;;;;;;;-141.97;72.37;47578.66;5050558;28;20181;-82
2022/10/28 05:27:43;;;;;;;37.10;16.57;;;;;;;-141.97;72.15;47582.50;5051401;28;20242;-80
2022/10/28 05:30:09;;;;;;;37.20;19.80;;;;;;;-141.97;71.37;47559.44;5050575;28;20189;-80
2022/10/28 05:32:35;;;;;;;48.43;23.40;;;;;;;-141.97;70.44;47611.34;5050735;28;20556;-80
2022/10/28 05:35:00;;;;;;;54.13;27.13;;;;;;;-141.97;70.57;47603.66;5050640;28;20693;-80
2022/10/28 05:37:26;;;;;;;78.60;33.10;;;;;;;-141.97;70.17;47551.75;5049861;28;20184;-80
2022/10/28 05:39:51;;;;;;;60.80;30.63;;;;;;;-141.97;70.95;47582.50;5054960;28;20194;-79
2022/10/28 05:42:16;;;;;;;57.70;28.93;;;;;;;-141.97;70.56;47588.28;5070099;28;20176;-80
2022/10/28 05:44:42;;;;;;;45.20;20.40;;;;;;;-141.97;70.37;47703.59;5070259;28;20177;-80
2022/10/28 05:47:07;;;;;;;24.93;15.87;;;;;;;-141.97;70.51;47586.34;5069631;28;20192;-80
2022/10/28 05:49:32;;;;;;;24.53;13.47;;;;;;;-141.97;70.43;47582.50;5071394;28;20212;-79
2022/10/28 05:52:04;;;;;;;26.53;13.13;;;;;;;-141.97;69.98;47538.28;5070846;28;20192;-80
2022/10/28 05:54:29;;;;;;;26.30;13.17;;;;;;;-141.97;70.54;47580.59;5071096;28;20176;-80
2022/10/28 05:56:55;;;;;;;46.90;19.30;;;;;;;-141.97;69.51;47697.84;5058802;28;20205;-79
2022/10/28 05:59:20;;;;;;;36.47;16.93;;;;;;;-141.97;69.05;47538.28;5053574;28;20653;-79
2022/10/28 06:01:46;;;;;;;30.43;16.20;;;;;;;-141.97;68.99;47609.41;5052207;28;20181;-79
2022/10/28 06:04:11;;;;;;;30.93;15.57;;;;;;;-141.97;69.78;47580.59;5050583;28;20211;-79
2022/10/28 06:06:36;;;;;;;47.57;28.03;;;;;;;-141.97;69.65;47584.44;5052050;28;20173;-79
2022/10/28 06:09:02;;;;;;;37.13;19.93;;;;;;;-141.97;69.66;47601.72;5049124;28;20233;-79
2022/10/28 06:11:27;;;;;;;30.73;18.33;;;;;;;-141.97;68.50;47584.44;5070589;28;20189;-80
2022/10/28 06:13:53;;;;;;;36.10;21.90;;;;;;;-141.97;67.84;47580.59;5070423;28;20204;-79
2022/10/28 06:16:18;;;;;;;27.07;14.27;;;;;;;-141.97;67.80;47595.97;5052829;28;20807;-79
2022/10/28 06:18:43;;;;;;;23.30;10.93;;;;;;;-141.97;68.29;47565.22;5049819;28;20201;-80
2022/10/28 06:21:09;;;;;;;21.70;12.57;;;;;;;-141.97;68.36;47572.91;5050292;28;20181;-80
2022/10/28 06:23:34;;;;;;;20.80;12.40;;;;;;;-141.97;68.00;47592.13;5049462;28;20185;-79
2022/10/28 06:26:02;;;;;;;26.03;12.20;;;;;;;-141.97;66.79;47580.59;5049857;28;20618;-79
2022/10/28 06:28:28;;;;;;;22.50;13.53;;;;;;;-141.97;65.79;47605.56;5050561;28;20185;-78
2022/10/28 06:30:53;;;;;;;29.27;17.40;;;;;;;-141.97;65.84;47592.13;5049860;28;20231;-78
2022/10/28 06:33:19;;;;;;;31.10;14.80;;;;;;;-141.97;65.88;47595.97;5049763;28;20217;-79
2022/10/28 06:35:44;;;;;;;38.00;18.60;;;;;;;-141.97;65.96;47601.72;5067712;28;20681;-78
2022/10/28 06:38:11;;;;;;;35.93;18.80;;;;;;;-141.97;64.28;47611.34;5049782;28;20188;-79
2022/10/28 06:40:37;;;;;;;33.47;17.97;;;;;;;-141.97;63.50;47567.13;5049839;28;20182;-79
2022/10/28 06:43:06;;;;;;;29.07;16.50;;;;;;;-141.97;63.02;47584.44;5050491;28;20664;-79
2022/10/28 06:45:33;;;;;;;25.23;15.07;;;;;;;-141.97;63.04;47553.69;5050625;28;20200;-82
2022/10/28 06:48:00;;;;;;;20.80;12.20;;;;;;;-141.97;62.63;47592.13;5050165;28;20205;-78
2022/10/28 06:50:27;;;;;;;22.90;12.20;;;;;;;-141.97;62.25;47553.69;5049519;28;20273;-77
2022/10/28 06:52:55;;;;;;;24.70;12.63;;;;;;;-141.97;61.08;47609.41;5031729;28;20711;-79
2022/10/28 06:55:20;;;;;;;29.57;13.13;;;;;;;-141.97;60.35;47605.56;5051593;28;20231;-78
2022/10/28 06:57:46;;;;;;;27.60;14.87;;;;;;;-141.97;60.35;47582.50;5052643;28;20625;-78
2022/10/28 07:00:12;;;;;;;36.63;19.93;;;;;;;-141.97;58.34;47565.22;5052241;28;20181;-79
2022/10/28 07:02:37;;;;;;;58.33;30.73;;;;;;;-141.97;57.00;47546.00;5054171;28;20581;-78
2022/10/28 07:05:03;;;;;;;35.40;20.30;;;;;;;-141.97;56.50;47551.75;5057310;28;20196;-78
2022/10/28 07:07:28;;;;;;;32.90;18.30;;;;;;;-141.97;55.46;47553.69;5053971;28;20181;-78
2022/10/28 07:09:54;;;;;;;26.13;15.23;;;;;;;-141.97;54.68;47586.34;5070799;28;20201;-78
2022/10/28 07:12:19;;;;;;;26.90;12.57;;;;;;;-141.97;54.31;47567.13;5073534;28;20665;-77
2022/10/28 07:14:45;;;;;;;22.50;13.30;;;;;;;-141.97;53.70;47542.16;5052264;28;20241;-79
2022/10/28 07:17:10;;;;;;;20.37;10.53;;;;;;;-141.97;54.14;47582.50;5053452;28;20201;-79
2022/10/28 07:19:35;;;;;;;21.27;10.17;;;;;;;-141.97;53.18;47611.34;5052674;28;20322;-79
2022/10/28 07:22:01;;;;;;;18.63;10.20;;;;;;;-141.97;53.04;47557.53;5052540;28;20669;-79
2022/10/28 07:24:26;;;;;;;16.97;10.37;;;;;;;-141.97;52.90;47540.22;5053104;28;20185;-79
2022/10/28 07:26:51;;;;;;;21.13;10.77;;;;;;;-141.97;51.50;47565.22;5052296;28;20230;-79
2022/10/28 07:29:17;;;;;;;22.53;10.00;;;;;;;-141.97;50.82;47546.00;5052177;28;20564;-78
2022/10/28 07:31:42;;;;;;;19.53;9.50;;;;;;;-141.97;50.58;47555.59;5052678;28;20189;-78
2022/10/28 07:34:07;;;;;;;25.10;10.37;;;;;;;-141.97;49.53;47547.91;5051846;28;20283;-78
2022/10/28 07:36:33;;;;;;;19.63;10.30;;;;;;;-141.97;49.46;47549.84;5051942;28;20274;-78
2022/10/28 07:38:58;;;;;;;21.17;9.67;;;;;;;-141.97;48.93;47519.06;5052965;28;20184;-77
2022/10/28 07:41:24;;;;;;;16.93;8.80;;;;;;;-141.97;49.10;47526.75;5052394;28;20234;-77
2022/10/28 07:43:49;;;;;;;19.07;7.47;;;;;;;-141.97;48.89;47540.22;5052234;28;20281;-77
2022/10/28 07:46:16;;;;;;;17.77;7.67;;;;;;;-141.97;48.28;47569.06;5052363;28;20185;-78
2022/10/28 07:48:42;;;;;;;18.50;6.97;;;;;;;-141.97;48.57;47599.81;5052434;28;20784;-78
2022/10/28 07:51:10;;;;;;;11.40;6.57;;;;;;;-141.97;47.86;47522.91;5052528;28;20174;-78
2022/10/28 07:53:35;;;;;;;10.37;6.10;;;;;;;-141.97;48.35;47530.59;5052412;28;20728;-79
2022/10/28 07:56:08;;;;;;;10.73;6.17;;;;;;;-141.97;47.96;47555.59;5063241;28;20300;-79
2022/10/28 07:58:34;;;;;;;10.67;6.17;;;;;;;-141.97;48.59;47551.75;5052955;28;20181;-79
2022/10/28 08:01:04;;;;;;;14.87;5.90;;;;;;;-141.97;47.32;47569.06;5052367;28;20189;-78
2022/10/28 08:03:30;;;;;;;10.83;5.93;;;;;;;-141.97;47.22;47549.84;5051881;28;20192;-79
2022/10/28 08:06:10;;;;;;;10.67;5.80;;;;;;;-141.97;46.29;47567.13;5051985;28;20185;-78
2022/10/28 08:08:37;;;;;;;8.87;5.90;;;;;;;-141.97;45.62;47553.69;5058579;28;20180;-79
2022/10/28 08:11:10;;;;;;;12.70;6.93;;;;;;;-141.97;44.00;47553.69;5072720;28;20172;-79
2022/10/28 08:13:36;;;;;;;11.07;6.77;;;;;;;-141.97;43.11;47519.06;5072019;28;20188;-77
2022/10/28 08:16:01;;;;;;;10.30;6.47;;;;;;;-141.97;42.81;47519.06;5053972;28;20247;-77
2022/10/28 08:18:26;;;;;;;12.87;6.07;;;;;;;-141.97;42.02;47488.31;5052083;28;20651;-77
2022/10/28 08:20:52;;;;;;;10.30;6.03;;;;;;;-141.97;41.85;47555.59;5052117;28;20200;-78
2022/10/28 08:23:17;;;;;;;13.70;6.30;;;;;;;-141.97;41.47;47519.06;5051654;28;20713;-78
2022/10/28 08:25:51;;;;;;;11.27;5.63;;;;;;;-141.97;41.91;47519.06;5051696;28;20181;-79
2022/10/28 08:28:16;;;;;;;10.60;6.60;;;;;;;-141.97;41.47;47544.06;5052171;28;20197;-78
2022/10/28 08:30:42;;;;;;;12.27;6.53;;;;;;;-141.97;41.70;47501.78;5051282;28;20182;-78
2022/10/28 08:33:07;;;;;;;11.80;5.87;;;;;;;-141.97;40.65;47553.69;5051302;28;20212;-78
2022/10/28 08:35:34;;;;;;;16.27;7.97;;;;;;;-141.97;41.18;47542.16;5050816;28;20233;-80
2022/10/28 08:37:59;;;;;;;10.77;5.97;;;;;;;-141.97;42.18;47534.44;5051332;28;20189;-78
2022/10/28 08:40:33;;;;;;;11.70;6.27;;;;;;;-141.97;40.87;47522.91;5050807;28;20259;-79
2022/10/28 08:43:07;;;;;;;9.30;5.90;;;;;;;-141.97;40.96;47522.91;5050587;28;20189;-78
2022/10/28 08:45:54;;;;;;;11.00;5.57;;;;;;;-141.97;41.85;47536.38;5050054;28;20177;-77
2022/10/28 08:48:35;;;;;;;11.40;6.13;;;;;;;-141.97;40.69;47530.59;5050969;28;20193;-78
2022/10/28 08:51:21;;;;;;;11.53;6.50;;;;;;;-141.97;40.38;47534.44;5051248;28;20557;-78
2022/10/28 08:53:54;;;;;;;11.00;6.30;;;;;;;-141.97;39.32;47503.69;5050584;28;20185;-79
2022/10/28 08:56:27;;;;;;;12.77;7.17;;;;;;;-141.97;38.64;47519.06;5049892;28;20209;-78
2022/10/28 08:58:55;;;;;;;13.77;7.60;;;;;;;-141.97;38.21;47484.47;5051568;28;20185;-80
2022/10/28 09:01:39;;;;;;;15.93;10.53;;;;;;;-141.97;38.31;47507.53;5051059;28;20626;-81
2022/10/28 09:04:11;;;;;;;14.23;8.23;;;;;;;-141.97;38.00;47507.53;5050814;28;20191;-78
2022/10/28 09:06:37;;;;;;;10.93;6.63;;;;;;;-141.97;39.52;47521.00;5050666;28;20207;-79
2022/10/28 09:09:03;;;;;;;12.67;6.40;;;;;;;-141.97;39.07;47503.69;5059986;28;20193;-77
2022/10/28 09:11:47;;;;;;;9.83;5.73;;;;;;;-141.97;38.64;47538.28;5070066;28;20653;-77
2022/10/28 09:14:15;;;;;;;11.23;6.10;;;;;;;-141.97;38.08;47511.38;5070164;28;20242;-77
2022/10/28 09:16:58;;;;;;;12.50;7.13;;;;;;;-141.97;38.24;47511.38;5048654;28;20290;-77
2022/10/28 09:19:39;;;;;;;21.30;11.77;;;;;;;-141.97;37.91;47507.53;5049987;28;20181;-78
2022/10/28 09:22:24;;;;;;;12.00;6.60;;;;;;;-141.97;37.43;47532.53;5050608;28;20181;-78
2022/10/28 09:24:58;;;;;;;14.37;8.20;;;;;;;-141.97;37.12;47519.06;5033855;28;20181;-81
2022/10/28 09:27:42;;;;;;;12.67;7.10;;;;;;;-141.97;37.41;47476.78;5049990;28;20254;-79
2022/10/28 09:30:40;;;;;;;10.83;7.17;;;;;;;-141.97;36.60;47480.63;5050175;28;20181;-78
2022/10/28 09:33:18;;;;;;;10.60;5.70;;;;;;;-141.97;37.51;47494.09;5050348;28;20192;-79
2022/10/28 09:35:47;;;;;;;14.63;7.30;;;;;;;-141.97;38.12;47472.94;5049390;28;20232;-77
2022/10/28 09:38:26;;;;;;;9.60;6.37;;;;;;;-141.97;36.93;47494.09;5050215;28;20209;-79
2022/10/28 09:41:16;;;;;;;12.57;6.97;;;;;;;-141.97;36.52;47507.53;5050114;28;20189;-80
2022/10/28 09:43:47;;;;;;;9.27;5.60;;;;;;;-141.97;36.50;47492.16;4968735;28;20202;-78
2022/10/28 09:46:15;;;;;;;8.77;5.93;;;;;;;-141.97;36.07;47459.50;4968415;28;20209;-78
2022/10/28 09:48:45;;;;;;;13.00;6.87;;;;;;;-141.97;35.64;47446.03;4968648;28;20278;-79
2022/10/28 09:51:26;;;;;;;12.37;7.30;;;;;;;-141.97;35.94;47457.56;4969407;28;20282;-80
2022/10/28 09:53:59;;;;;;;11.93;8.10;;;;;;;-141.97;36.01;47469.09;4968756;28;20271;-79
2022/10/28 09:56:26;;;;;;;9.43;5.83;;;;;;;-141.97;35.49;47480.63;4968347;28;20215;-79
2022/10/28 09:58:53;;;;;;;8.93;5.73;;;;;;;-141.97;36.13;47496.00;4968927;28;20617;-78
2022/10/28 10:01:19;;;;;;;10.93;5.53;;;;;;;-141.97;36.25;47486.41;4968689;28;20291;-78
2022/10/28 10:03:49;;;;;;;10.67;5.50;;;;;;;-141.97;36.70;47538.28;4969061;28;20196;-78
2022/10/28 10:06:45;;;;;;;7.43;5.80;;;;;;;-141.97;36.27;47519.06;4968788;28;20210;-79
2022/10/28 10:09:19;;;;;;;8.50;5.43;;;;;;;-141.97;35.55;47419.13;4979403;28;20203;-78
2022/10/28 10:11:47;;;;;;;8.80;5.87;;;;;;;-141.97;35.43;47436.44;4988169;28;20183;-78
2022/10/28 10:14:18;;;;;;;11.83;6.70;;;;;;;-141.97;35.33;47453.72;4988538;28;20195;-79
2022/10/28 10:16:51;;;;;;;10.23;6.07;;;;;;;-141.97;35.19;47492.16;4978608;28;20680;-79
2022/10/28 10:19:17;;;;;;;8.23;5.87;;;;;;;-141.97;35.37;47442.19;4988622;28;20249;-78
2022/10/28 10:21:48;;;;;;;8.27;5.13;;;;;;;-141.97;34.62;47459.50;4987397;28;20207;-81
2022/10/28 10:24:29;;;;;;;9.77;6.23;;;;;;;-141.97;34.90;47469.09;4988518;28;20191;-78
2022/10/28 10:26:56;;;;;;;9.40;5.30;;;;;;;-141.97;35.06;47472.94;4987334;28;20273;-78
2022/10/28 10:29:22;;;;;;;8.70;5.70;;;;;;;-141.97;34.88;47584.44;4991229;28;20198;-78
2022/10/28 10:32:02;;;;;;;9.20;4.60;;;;;;;-141.97;33.60;47476.78;4991857;28;20192;-79
2022/10/28 10:34:28;;;;;;;6.33;4.40;;;;;;;-141.97;32.79;47461.41;4991739;28;20222;-79
2022/10/28 10:36:55;;;;;;;8.83;4.77;;;;;;;-141.97;32.47;47422.97;4991578;28;20227;-78
2022/10/28 10:39:32;;;;;;;6.87;4.60;;;;;;;-141.97;32.95;47546.00;4991987;28;20695;-78
2022/10/28 10:41:57;;;;;;;6.43;4.63;;;;;;;-141.97;33.01;47469.09;4992961;28;20676;-79
2022/10/28 10:44:30;;;;;;;7.93;4.80;;;;;;;-141.97;32.85;47488.31;4992791;28;20278;-79
2022/10/28 10:46:59;;;;;;;8.13;4.47;;;;;;;-141.97;32.55;47432.59;5053399;28;20246;-77
2022/10/28 10:49:26;;;;;;;9.43;4.80;;;;;;;-141.97;32.94;47446.03;5054785;28;20692;-78
2022/10/28 10:51:55;;;;;;;6.67;4.30;;;;;;;-141.97;32.77;47446.03;5073349;28;20647;-77
2022/10/28 10:54:21;;;;;;;6.13;4.50;;;;;;;-141.97;32.71;47484.47;5073679;28;20235;-78
2022/10/28 10:56:46;;;;;;;6.37;4.13;;;;;;;-141.97;32.39;47478.72;5073037;28;20250;-79
2022/10/28 10:59:28;;;;;;;7.70;5.67;;;;;;;-141.97;32.63;47463.34;5055249;28;20193;-79
2022/10/28 11:01:56;;;;;;;6.20;4.20;;;;;;;-141.97;32.58;47469.09;5052683;28;20185;-78
2022/10/28 11:04:25;;;;;;;7.73;5.17;;;;;;;-141.97;32.65;47438.34;5052958;28;20181;-79
2022/10/28 11:06:53;;;;;;;6.63;4.70;;;;;;;-141.97;32.41;47482.56;5053466;28;20181;-78
2022/10/28 11:09:32;;;;;;;5.90;4.60;;;;;;;-141.97;32.80;47492.16;5064607;28;20299;-78
2022/10/28 11:11:58;;;;;;;10.80;4.03;;;;;;;-141.97;32.08;47488.31;5074210;28;20180;-77
2022/10/28 11:14:26;;;;;;;6.00;4.37;;;;;;;-141.97;31.91;47476.78;5072822;28;20195;-78